createdAt,value
2023-03-23T15:57:54.616Z,1.80
2023-03-23T16:00:23.544Z,2.37
2023-03-23T16:02:57.619Z,1.80
2023-03-23T16:05:24.531Z,4.13
2023-03-23T16:07:51.828Z,5.10
2023-03-23T16:10:23.141Z,2.87
2023-03-23T16:12:54.941Z,2.30
2023-03-23T16:15:21.821Z,2.17
2023-03-23T16:17:48.543Z,2.97
2023-03-23T16:20:20.462Z,2.33
2023-03-23T16:22:50.630Z,2.50
2023-03-23T16:25:18.860Z,3.33
2023-03-23T16:27:52.293Z,2.63
2023-03-23T16:30:33.236Z,2.00
2023-03-23T16:33:00.241Z,3.23
2023-03-23T16:35:27.164Z,3.72
2023-03-23T16:38:07.051Z,1.90
2023-03-23T16:40:41.265Z,3.53
2023-03-23T16:43:09.637Z,2.00
2023-03-23T16:45:43.265Z,3.03
2023-03-23T16:48:14.396Z,2.53
2023-03-23T16:50:44.454Z,4.17
2023-03-23T16:53:12.044Z,2.43
2023-03-23T16:55:41.316Z,3.57
2023-03-23T16:58:17.092Z,2.70
2023-03-23T17:00:47.834Z,2.10
2023-03-23T17:03:16.392Z,2.30
2023-03-23T17:05:45.047Z,2.50
2023-03-23T17:08:12.574Z,1.83
2023-03-23T17:10:42.336Z,2.10
2023-03-23T17:13:11.865Z,3.00
2023-03-23T17:15:40.902Z,2.97
2023-03-23T17:18:10.637Z,3.33
2023-03-23T17:20:37.372Z,2.43
2023-03-23T17:23:06.702Z,2.27
2023-03-23T17:25:33.555Z,2.60
2023-03-23T17:28:05.575Z,2.00
2023-03-23T17:30:34.219Z,1.97
2023-03-23T17:33:01.068Z,1.73
2023-03-23T17:35:27.928Z,2.70
2023-03-23T17:37:59.499Z,2.10
2023-03-23T17:40:26.250Z,2.87
2023-03-23T17:42:55.427Z,1.97
2023-03-23T17:45:27.360Z,2.63
2023-03-23T17:47:54.084Z,1.60
2023-03-23T17:50:23.325Z,3.43
2023-03-23T17:52:52.609Z,1.73
2023-03-23T17:55:21.768Z,3.22
2023-03-23T17:57:51.061Z,2.40
2023-03-23T18:00:18.348Z,3.03
2023-03-23T18:02:45.271Z,1.93
2023-03-23T18:05:14.390Z,2.45
2023-03-23T18:07:41.401Z,2.53
2023-03-23T18:10:12.478Z,3.03
2023-03-23T18:12:44.814Z,2.63
2023-03-23T18:15:14.084Z,3.43
2023-03-23T18:17:41.098Z,3.67
2023-03-23T18:20:08.798Z,2.47
2023-03-23T18:22:35.617Z,2.50
2023-03-23T18:25:04.303Z,10.80
2023-03-23T18:27:31.334Z,16.67
2023-03-23T18:29:58.529Z,66.57
2023-03-23T18:32:25.378Z,118.03
2023-03-23T18:34:55.972Z,136.35
2023-03-23T18:37:22.957Z,95.40
2023-03-23T18:39:53.644Z,76.23
2023-03-23T18:42:23.015Z,62.27
2023-03-23T18:44:54.241Z,58.33
2023-03-23T18:47:21.450Z,39.83
2023-03-23T18:49:51.357Z,40.73
2023-03-23T18:52:18.961Z,51.97
2023-03-23T18:54:48.260Z,19.00
2023-03-23T18:57:21.334Z,23.37
2023-03-23T18:59:50.726Z,24.90
2023-03-23T19:02:20.838Z,37.20
2023-03-23T19:04:50.464Z,29.05
2023-03-23T19:07:18.043Z,17.87
2023-03-23T19:09:46.750Z,19.07
2023-03-23T19:12:15.165Z,12.20
2023-03-23T19:14:44.385Z,14.73
2023-03-23T19:17:11.381Z,13.03
2023-03-23T19:19:43.061Z,14.87
2023-03-23T19:22:13.356Z,13.97
2023-03-23T19:24:44.692Z,10.07
2023-03-23T19:27:11.525Z,9.87
2023-03-23T19:29:38.266Z,9.27
2023-03-23T19:32:07.400Z,10.20
2023-03-23T19:34:36.770Z,13.63
2023-03-23T19:37:05.778Z,8.33
2023-03-23T19:39:41.694Z,8.07
2023-03-23T19:42:09.808Z,7.50
2023-03-23T19:44:41.459Z,10.13
2023-03-23T19:47:08.297Z,7.13
2023-03-23T19:49:38.642Z,9.57
2023-03-23T19:52:12.610Z,13.43
2023-03-23T19:54:41.062Z,10.90
2023-03-23T19:57:09.998Z,8.43
2023-03-23T19:59:38.193Z,8.93
2023-03-23T20:02:10.654Z,9.23
2023-03-23T20:04:40.146Z,7.00
2023-03-23T20:07:08.275Z,9.63
2023-03-23T20:09:35.772Z,20.43
2023-03-23T20:12:05.142Z,8.93
2023-03-23T20:14:33.244Z,35.90
2023-03-23T20:17:02.218Z,31.67
2023-03-23T20:19:29.305Z,27.83
2023-03-23T20:21:56.497Z,17.67
2023-03-23T20:24:25.754Z,17.40
2023-03-23T20:26:52.535Z,11.80
2023-03-23T20:29:19.308Z,11.27
2023-03-23T20:31:46.696Z,8.03
2023-03-23T20:34:28.548Z,11.40
2023-03-23T20:37:01.856Z,8.83
2023-03-23T20:39:31.852Z,5.10
2023-03-23T20:42:03.190Z,6.00
2023-03-23T20:44:32.953Z,5.73
2023-03-23T20:47:00.034Z,2.57
2023-03-23T20:49:27.501Z,10.30
2023-03-23T20:51:57.145Z,4.82
2023-03-23T20:54:24.560Z,4.73
2023-03-23T20:59:20.200Z,3.93
2023-03-23T21:01:50.560Z,1.90
2023-03-23T21:04:19.506Z,2.25
2023-03-23T21:06:49.035Z,2.57
2023-03-23T21:09:17.411Z,6.00
2023-03-23T21:11:47.382Z,1.60
2023-03-23T21:14:14.994Z,2.70
2023-03-23T21:16:42.872Z,3.90
2023-03-23T21:19:09.986Z,2.10
2023-03-23T21:21:36.873Z,2.10
2023-03-23T21:24:06.341Z,2.17
2023-03-23T21:26:35.589Z,2.03
2023-03-23T21:29:04.200Z,3.80
2023-03-23T21:31:35.113Z,2.90
2023-03-23T21:34:02.313Z,2.03
2023-03-23T21:36:32.611Z,1.67
2023-03-23T21:39:02.114Z,2.10
2023-03-23T21:41:30.084Z,1.83
2023-03-23T21:44:10.539Z,1.60
2023-03-23T21:46:41.981Z,2.00
2023-03-23T21:49:13.931Z,2.53
2023-03-23T21:51:42.060Z,1.90
2023-03-23T21:54:10.847Z,3.33
2023-03-23T21:56:40.221Z,3.33
2023-03-23T21:59:12.064Z,1.60
2023-03-23T22:01:40.388Z,1.50
2023-03-23T22:04:10.282Z,1.83
2023-03-23T22:06:39.136Z,2.33
2023-03-23T22:09:09.587Z,1.73
2023-03-23T22:11:40.369Z,2.43
2023-03-23T22:14:12.394Z,2.10
2023-03-23T22:16:41.356Z,1.63
2023-03-23T22:19:08.400Z,1.83
2023-03-23T22:21:36.561Z,5.25
2023-03-23T22:24:03.472Z,3.43
2023-03-23T22:26:31.254Z,1.83
2023-03-23T22:28:59.718Z,1.80
2023-03-23T22:31:34.703Z,1.90
2023-03-23T22:34:01.797Z,1.50
2023-03-23T22:36:30.054Z,1.60
2023-03-23T22:38:56.842Z,2.93
2023-03-23T22:41:30.739Z,1.67
2023-03-23T22:43:57.716Z,2.40
2023-03-23T22:46:27.334Z,2.40
2023-03-23T22:48:56.556Z,1.70
2023-03-23T22:51:25.976Z,1.60
2023-03-23T22:53:56.471Z,1.50
2023-03-23T22:56:26.699Z,2.80
2023-03-23T22:58:54.574Z,1.47
2023-03-23T23:01:24.538Z,2.70
2023-03-23T23:03:56.624Z,1.53
2023-03-23T23:06:25.962Z,2.10
2023-03-23T23:08:54.866Z,2.60
2023-03-23T23:11:23.950Z,1.60
2023-03-23T23:13:51.596Z,1.53
2023-03-23T23:16:22.616Z,1.50
2023-03-23T23:18:49.646Z,2.20
2023-03-23T23:21:20.580Z,1.90
2023-03-23T23:23:51.615Z,7.77
2023-03-23T23:26:19.833Z,2.30
2023-03-23T23:28:50.481Z,1.90
2023-03-23T23:31:27.015Z,2.77
2023-03-23T23:33:56.452Z,3.73
2023-03-23T23:36:30.185Z,2.10
2023-03-23T23:38:58.953Z,2.10
2023-03-23T23:41:27.126Z,3.63
2023-03-23T23:43:54.288Z,2.60
2023-03-23T23:46:21.542Z,2.03
2023-03-23T23:48:51.205Z,4.97
2023-03-23T23:51:18.083Z,2.60
2023-03-23T23:53:46.327Z,2.53
2023-03-23T23:56:14.361Z,1.80
2023-03-23T23:58:43.656Z,6.40
